Tropical Cyclones
[Index]
Main Index Home Page Stock Weather Photos Extreme Storms Discussion Storm News and Storm Chasing Reports Tropical Cyclones / Hurricanes / Typhoons Weather Data and Links Wild Fires / Bushfires Weather Observation Techniques Weather Picture Catalogue Tornado Pictures and Reports Stock Video Footage and DVDs for sale
Season 2009-2010 Tropical Cyclone TOMAS Track Map
Season 2009-2010 Summaries: [BoM-AU] [JTWC-AU] [JTWC-SIO] [JTWC-SPAC] [JTWC-SH]
<<- Previous TC | JTWC 2009-2010 Season | Next TC ->>

click for intensity scale information  Lat/long Grid: Show Hide

 Date Labels: Show Hide

Joint Typhoon Warning Centre Cyclone Data

Name: TOMAS

10 Mar 2010 12:00 UTC to 17 Mar 2010 18:00 UTC

    date/time    lat    long     hPa   cat  kts
2010-03-10 12    9.7   172.8W   1004         25          
2010-03-10 18   10.2   173.1W   1004         25          
2010-03-11 00   10.6   173.6W   1000         30          
2010-03-11 06   10.9   174.4W   1000         30          
2010-03-11 12   10.8   175.3W   1000         30          
2010-03-11 18   10.5   175.7W    996         35          
2010-03-12 00   10.7   176.1W    993    1    40          
2010-03-12 06   10.9   176.6W    989    1    45          
2010-03-12 12   11.1   177.1W    982    2    55          
2010-03-12 12   11.1   177.1W    982    2    55          
2010-03-12 18   11.3   177.6W    978    2    60          
2010-03-12 18   11.3   177.6W    978    2    60          
2010-03-13 00   11.6   178.0W    974    2    65          
2010-03-13 00   11.6   178.0W    974    2    65          
2010-03-13 06   12.1   178.3W    974    2    65          
2010-03-13 06   12.1   178.3W    974    2    65          
2010-03-13 12   12.5   178.7W    974    2    65          
2010-03-13 12   12.5   178.7W    974    2    65          
2010-03-13 18   13.0   179.0W    970    2    70          
2010-03-13 18   13.0   179.0W    970    2    70          
2010-03-13 18   13.0   179.0W    970    2    70          
2010-03-14 00   13.5   179.3W    959    3    85          
2010-03-14 00   13.5   179.3W    959    3    85          
2010-03-14 00   13.5   179.3W    959    3    85          
2010-03-14 06   14.1   179.5W    959    3    85          
2010-03-14 06   14.1   179.5W    959    3    85          
2010-03-14 06   14.1   179.5W    959    3    85          
2010-03-14 12   14.6   179.6W    948    4   100          
2010-03-14 12   14.6   179.6W    948    4   100          
2010-03-14 12   14.6   179.6W    948    4   100          
2010-03-14 18   15.1   179.6W    948    4   100          
2010-03-14 18   15.1   179.6W    948    4   100          
2010-03-14 18   15.1   179.6W    948    4   100          
2010-03-15 00   15.6   179.4W    941    4   110          
2010-03-15 00   15.6   179.4W    941    4   110          
2010-03-15 00   15.6   179.4W    941    4   110          
2010-03-15 06   16.2   179.5W    937    4   115          
2010-03-15 06   16.2   179.5W    937    4   115          
2010-03-15 06   16.2   179.5W    937    4   115          
2010-03-15 12   16.9   179.5W    937    4   115          
2010-03-15 12   16.9   179.5W    937    4   115          
2010-03-15 12   16.9   179.5W    937    4   115          
2010-03-15 18   17.7   179.5W    944    4   105          
2010-03-15 18   17.7   179.5W    944    4   105          
2010-03-15 18   17.7   179.5W    944    4   105          
2010-03-16 00   18.6   179.5W    944    4   105          
2010-03-16 00   18.6   179.5W    944    4   105          
2010-03-16 00   18.6   179.5W    944    4   105          
2010-03-16 06   19.8   179.2W    944    4   105          
2010-03-16 06   19.8   179.2W    944    4   105          
2010-03-16 06   19.8   179.2W    944    4   105          
2010-03-16 12   21.2   178.7W    944    4   105          
2010-03-16 12   21.2   178.7W    944    4   105          
2010-03-16 12   21.2   178.7W    944    4   105          
2010-03-16 18   23.1   178.0W    944    4   105          
2010-03-16 18   23.1   178.0W    944    4   105          
2010-03-16 18   23.1   178.0W    944    4   105          
2010-03-17 00   25.0   176.7W    948    4   100          
2010-03-17 00   25.0   176.7W    948    4   100          
2010-03-17 00   25.0   176.7W    948    4   100          
2010-03-17 06   27.0   174.7W    959    3    85          
2010-03-17 06   27.0   174.7W    959    3    85          
2010-03-17 06   27.0   174.7W    959    3    85          
2010-03-17 12   29.4   171.7W    974    2    65          
2010-03-17 12   29.4   171.7W    974    2    65          
2010-03-17 18   31.4   167.8W    989    1    45          
Winds are 1-min average.

Tropical cyclone tracks developed by Michael Bath using data from the Joint Typhoon Warning Centre Best Tracks and Google Maps.


[Australian Severe Weather index] [Copyright Notice] [Email Contacts] [Search This Site] [Privacy Policy]
Document: tropical_cyclone_tomas.htm Updated: 28 June 2017